createdAt,value
2022-08-22T00:08:53.763Z,73.83
2022-08-22T00:19:04.966Z,73.05
2022-08-22T00:29:13.113Z,72.52
2022-08-22T00:39:22.359Z,72.85
2022-08-22T00:49:44.392Z,72.37
2022-08-22T01:00:04.119Z,71.73
2022-08-22T01:10:22.490Z,71.83
2022-08-22T01:20:55.918Z,71.85
2022-08-22T01:31:18.634Z,72.17
2022-08-22T01:41:39.523Z,72.36
2022-08-22T01:51:47.500Z,73.52
2022-08-22T02:01:59.917Z,72.84
2022-08-22T02:12:23.769Z,71.77
2022-08-22T02:22:44.347Z,72.40
2022-08-22T02:33:00.554Z,72.14
2022-08-22T02:43:20.660Z,71.85
2022-08-22T02:53:30.299Z,72.32
2022-08-22T03:03:40.847Z,72.07
2022-08-22T03:13:51.480Z,72.04
2022-08-22T03:23:59.495Z,72.20
2022-08-22T03:34:22.634Z,72.45
2022-08-22T03:45:02.477Z,72.19
2022-08-22T03:55:20.586Z,72.02
2022-08-22T04:05:39.612Z,72.01
2022-08-22T04:16:05.265Z,71.63
2022-08-22T04:26:13.795Z,71.23
2022-08-22T04:36:21.465Z,71.57
2022-08-22T04:46:39.480Z,71.60
2022-08-22T04:56:54.496Z,71.33
2022-08-22T05:07:07.502Z,71.51
2022-08-22T05:17:15.501Z,71.71
2022-08-22T05:27:25.107Z,72.30
2022-08-22T05:37:35.556Z,73.21
2022-08-22T05:47:43.062Z,71.94
2022-08-22T05:57:50.182Z,71.97
2022-08-22T06:07:59.838Z,72.75
2022-08-22T06:18:20.880Z,72.39
2022-08-22T06:28:27.210Z,72.89
2022-08-22T06:38:33.528Z,73.01
2022-08-22T06:48:38.296Z,73.54
2022-08-22T06:58:43.882Z,73.31
2022-08-22T07:08:54.729Z,72.76
2022-08-22T07:18:57.757Z,72.31
2022-08-22T07:29:10.326Z,72.18
2022-08-22T07:39:24.281Z,72.13
2022-08-22T07:49:33.407Z,72.12
2022-08-22T07:59:44.653Z,70.86
2022-08-22T08:09:52.291Z,70.41
2022-08-22T08:19:56.833Z,68.87
2022-08-22T08:30:04.103Z,69.60
2022-08-22T08:40:17.958Z,65.10
2022-08-22T08:50:34.248Z,67.36
2022-08-22T09:00:51.958Z,63.59
2022-08-22T09:11:31.085Z,65.25
2022-08-22T09:22:19.652Z,63.52
2022-08-22T09:32:35.446Z,64.13
2022-08-22T09:42:46.454Z,65.12
2022-08-22T09:52:56.909Z,63.93
2022-08-22T10:03:06.438Z,63.98
2022-08-22T10:13:20.021Z,64.06
2022-08-22T10:23:29.720Z,62.55
2022-08-22T10:33:39.719Z,64.54
2022-08-22T10:43:56.580Z,61.67
2022-08-22T10:54:38.283Z,60.82
2022-08-22T11:04:55.532Z,59.50
2022-08-22T11:15:07.528Z,59.94
2022-08-22T11:25:38.622Z,59.13
2022-08-22T11:35:56.010Z,57.60
2022-08-22T11:46:02.121Z,57.71
2022-08-22T11:56:17.547Z,56.36
2022-08-22T12:06:51.756Z,54.63
2022-08-22T12:17:28.562Z,54.34
2022-08-22T12:28:08.260Z,56.27
2022-08-22T12:38:29.740Z,52.74
2022-08-22T12:48:53.386Z,52.49
2022-08-22T12:59:33.748Z,51.92
2022-08-22T13:09:39.303Z,51.89
2022-08-22T13:19:55.604Z,50.82
2022-08-22T13:30:01.305Z,51.80
2022-08-22T13:40:10.226Z,49.58
2022-08-22T13:50:20.316Z,46.30
2022-08-22T14:01:08.996Z,47.56
2022-08-22T14:11:21.628Z,49.20
2022-08-22T14:21:40.119Z,50.17
2022-08-22T14:31:56.946Z,51.81
2022-08-22T14:42:10.049Z,53.19
2022-08-22T14:52:33.294Z,53.43
2022-08-22T15:02:36.886Z,52.85
2022-08-22T15:12:47.694Z,52.59
2022-08-22T15:22:53.171Z,54.47
2022-08-22T15:33:10.001Z,55.12
2022-08-22T15:43:23.425Z,56.93
2022-08-22T15:53:31.397Z,58.49
2022-08-22T16:03:43.775Z,57.28
2022-08-22T16:13:48.507Z,56.34
2022-08-22T16:24:29.691Z,56.86
2022-08-22T16:34:43.947Z,57.14
2022-08-22T16:44:47.990Z,62.04
2022-08-22T16:54:53.895Z,74.71
2022-08-22T17:05:11.426Z,72.92
2022-08-22T17:15:26.258Z,71.58
2022-08-22T17:25:35.926Z,72.97
2022-08-22T17:35:50.476Z,73.93
2022-08-22T17:46:06.643Z,74.59
2022-08-22T17:56:21.457Z,74.26
2022-08-22T18:06:28.996Z,74.11
2022-08-22T18:16:37.150Z,74.30
2022-08-22T18:26:46.071Z,74.91
2022-08-22T18:36:55.900Z,75.50
2022-08-22T18:47:00.972Z,77.52
2022-08-22T19:07:53.944Z,74.04
2022-08-22T19:18:16.821Z,74.96
2022-08-22T19:28:29.783Z,74.83
2022-08-22T19:39:03.400Z,76.37
2022-08-22T19:49:28.352Z,74.40
2022-08-22T19:59:51.356Z,74.15
2022-08-22T20:10:09.133Z,75.31
2022-08-22T20:20:41.702Z,74.68
2022-08-22T20:30:51.146Z,74.00
2022-08-22T20:41:01.691Z,73.14
2022-08-22T20:51:07.457Z,72.59
2022-08-22T21:01:14.018Z,73.03
2022-08-22T21:11:41.818Z,72.69
2022-08-22T21:21:47.304Z,74.13
2022-08-22T21:31:53.154Z,73.87
2022-08-22T21:42:13.249Z,73.75
2022-08-22T21:52:28.576Z,73.11
2022-08-22T22:02:37.294Z,74.37
2022-08-22T22:12:42.133Z,75.47
2022-08-22T22:22:48.643Z,74.17
2022-08-22T22:32:55.330Z,74.03
2022-08-22T22:43:04.306Z,74.04
2022-08-22T22:53:12.460Z,73.67
2022-08-22T23:03:27.887Z,73.57
2022-08-22T23:13:36.700Z,74.10
2022-08-22T23:23:49.525Z,73.41
2022-08-22T23:33:57.270Z,73.42
2022-08-22T23:44:08.495Z,73.74
2022-08-22T23:54:22.185Z,73.46
